PWSweather.com
Personal Weather Stations
Station Observations
KNCCHINA3
Red Tractor Trail, China Grove, NC 28023

Red Tractor TrailChina Grove, NC 28023

Lat: 35.59751, Lon: -80.60201

Elevation: 800

Station Type: Oregon Scientific WMR 968

http://www.joesweathergarage.com

High Low Average
Temperature 55.5°F13.1°C 22.4°F-5.3°C 37.5°F3.1°C
Dew Point 51.0°F10.6°C -14.8°F-26.0°C 16.3°F-8.7°C
Winds 25.5 mph 41.0 kmh Calm Calm 8.0 mph S12.9 kmh S
Wind Gusts 45.2 mph72.7 kmh -- 16.0 mph25.7 kmh
Humidity 98% 9% 49%
Pressure 30.42 in1030.1 mb 29.88 in1011.9 mb -
Precipitation 0.08 in2.0 mm - -
Hour Temp Dew Point Humidity Winds Wind Gusts Pressure Precip Precip Rate Daily Precip Total
12:02 AM 55.5°F13.1°C 49.1°F9.5°C 79% 9.5 mph W15.3 kmh W 13.0 mph20.9 kmh 29.88 in1011.9 mb 0.00 in0.0 mm 0.00 in0.0 mm 0.00 in0.0 mm
12:07 AM 54.4°F12.4°C 49.6°F9.8°C 84% 8.8 mph W14.2 kmh W 13.0 mph20.9 kmh 29.88 in1011.9 mb 0.00 in0.0 mm 0.00 in0.0 mm 0.00 in0.0 mm
12:13 AM 53.7°F12.1°C 50.2°F10.1°C 88% 7.3 mph W11.7 kmh W 12.0 mph19.3 kmh 29.88 in1011.9 mb 0.00 in0.0 mm 0.00 in0.0 mm 0.00 in0.0 mm
12:18 AM 53.0°F11.7°C 51.0°F10.6°C 93% 8.5 mph W13.7 kmh W 11.6 mph18.7 kmh 29.91 in1012.9 mb 0.00 in0.0 mm 0.00 in0.0 mm 0.00 in0.0 mm
12:24 AM 52.2°F11.2°C 51.0°F10.6°C 96% 7.9 mph NW12.7 kmh NW 11.6 mph18.7 kmh 29.91 in1012.9 mb 0.00 in0.0 mm 0.00 in0.0 mm 0.00 in0.0 mm
12:29 AM 49.7°F9.8°C 47.1°F8.4°C 91% 18.6 mph N29.9 kmh N 35.4 mph57.0 kmh 29.97 in1014.9 mb 0.04 in1.0 mm 0.48 in12.2 mm 0.04 in1.0 mm
12:34 AM 47.7°F8.7°C 44.9°F7.2°C 90% 11.8 mph N19.0 kmh N 35.4 mph57.0 kmh 29.97 in1014.9 mb 0.04 in1.0 mm 0.00 in0.0 mm 0.04 in1.0 mm
12:39 AM 46.5°F8.1°C 44.5°F6.9°C 93% 11.9 mph N19.2 kmh N 24.6 mph39.6 kmh 29.97 in1014.9 mb 0.04 in1.0 mm 0.00 in0.0 mm 0.04 in1.0 mm
12:44 AM 45.9°F7.7°C 44.5°F6.9°C 95% 11.3 mph NNW18.2 kmh NNW 19.6 mph31.5 kmh 29.94 in1013.9 mb 0.04 in1.0 mm 0.00 in0.0 mm 0.04 in1.0 mm
12:49 AM 45.4°F7.4°C 44.0°F6.7°C 95% 11.5 mph N18.5 kmh N 24.6 mph39.6 kmh 29.94 in1013.9 mb 0.04 in1.0 mm 0.00 in0.0 mm 0.04 in1.0 mm
12:54 AM 45.0°F7.2°C 43.9°F6.6°C 96% 8.5 mph N13.7 kmh N 24.6 mph39.6 kmh 29.94 in1013.9 mb 0.04 in1.0 mm 0.00 in0.0 mm 0.04 in1.0 mm
12:59 AM 44.9°F7.2°C 44.1°F6.7°C 97% 6.7 mph N10.8 kmh N 20.6 mph33.2 kmh 29.97 in1014.9 mb 0.00 in0.0 mm 0.00 in0.0 mm 0.04 in1.0 mm
01:27 AM 44.1°F6.7°C 43.5°F6.4°C 98% 4.0 mph NNW6.4 kmh NNW 7.6 mph12.2 kmh 29.97 in1014.9 mb 0.00 in0.0 mm 0.00 in0.0 mm 0.04 in1.0 mm
01:32 AM 44.1°F6.7°C 43.5°F6.4°C 98% 5.9 mph NW9.5 kmh NW 8.0 mph12.9 kmh 29.97 in1014.9 mb 0.00 in0.0 mm 0.00 in0.0 mm 0.04 in1.0 mm
01:37 AM 43.6°F6.4°C 43.0°F6.1°C 98% 5.6 mph NNW9.0 kmh NNW 13.0 mph20.9 kmh 29.97 in1014.9 mb 0.04 in1.0 mm 0.48 in12.2 mm 0.08 in2.0 mm
01:42 AM 43.1°F6.2°C 40.9°F4.9°C 92% 10.2 mph N16.4 kmh N 18.8 mph30.3 kmh 29.97 in1014.9 mb 0.04 in1.0 mm 0.00 in0.0 mm 0.08 in2.0 mm
01:47 AM 42.9°F6.1°C 39.3°F4.1°C 87% 11.1 mph N17.9 kmh N 26.0 mph41.8 kmh 30.00 in1015.9 mb 0.04 in1.0 mm 0.00 in0.0 mm 0.08 in2.0 mm
01:52 AM 42.5°F5.8°C 39.2°F4.0°C 88% 7.6 mph N12.2 kmh N 26.0 mph41.8 kmh 30.00 in1015.9 mb 0.04 in1.0 mm 0.00 in0.0 mm 0.08 in2.0 mm
01:58 AM 42.2°F5.7°C 39.4°F4.1°C 90% 6.2 mph NNW10.0 kmh NNW 11.6 mph18.7 kmh 30.00 in1015.9 mb 0.04 in1.0 mm 0.00 in0.0 mm 0.08 in2.0 mm
02:03 AM 42.0°F5.6°C 39.5°F4.2°C 91% 5.6 mph N9.0 kmh N 8.0 mph12.9 kmh 30.00 in1015.9 mb 0.00 in0.0 mm 0.00 in0.0 mm 0.08 in2.0 mm
02:10 AM 41.6°F5.3°C 39.4°F4.1°C 92% 6.3 mph N10.1 kmh N 16.2 mph26.1 kmh 30.00 in1015.9 mb 0.00 in0.0 mm 0.00 in0.0 mm 0.08 in2.0 mm
02:15 AM 41.3°F5.2°C 38.3°F3.5°C 89% 10.1 mph N16.3 kmh N 16.2 mph26.1 kmh 30.00 in1015.9 mb 0.00 in0.0 mm 0.00 in0.0 mm 0.08 in2.0 mm
02:20 AM 41.1°F5.1°C 38.1°F3.4°C 89% 11.6 mph N18.7 kmh N 22.0 mph35.4 kmh 30.00 in1015.9 mb 0.00 in0.0 mm 0.00 in0.0 mm 0.08 in2.0 mm
02:25 AM 40.7°F4.8°C 38.0°F3.3°C 90% 4.7 mph N7.6 kmh N 22.0 mph35.4 kmh 30.00 in1015.9 mb 0.00 in0.0 mm 0.00 in0.0 mm 0.08 in2.0 mm
02:30 AM 40.7°F4.8°C 37.7°F3.2°C 89% 9.5 mph N15.3 kmh N 17.4 mph28.0 kmh 30.00 in1015.9 mb 0.00 in0.0 mm 0.00 in0.0 mm 0.08 in2.0 mm
02:35 AM 40.7°F4.8°C 37.4°F3.0°C 88% 5.4 mph NNE8.7 kmh NNE 24.2 mph38.9 kmh 30.00 in1015.9 mb 0.00 in0.0 mm 0.00 in0.0 mm 0.08 in2.0 mm
02:40 AM 40.7°F4.8°C 37.4°F3.0°C 88% 8.0 mph N12.9 kmh N 24.2 mph38.9 kmh 30.00 in1015.9 mb 0.00 in0.0 mm 0.00 in0.0 mm 0.08 in2.0 mm
02:45 AM 40.5°F4.7°C 37.2°F2.9°C 88% 7.7 mph NNE12.4 kmh NNE 13.0 mph20.9 kmh 30.00 in1015.9 mb 0.00 in0.0 mm 0.00 in0.0 mm 0.08 in2.0 mm
02:50 AM 40.5°F4.7°C 37.5°F3.1°C 89% 8.3 mph NNE13.4 kmh NNE 13.0 mph20.9 kmh 30.00 in1015.9 mb 0.00 in0.0 mm 0.00 in0.0 mm 0.08 in2.0 mm
02:55 AM 40.5°F4.7°C 37.2°F2.9°C 88% 5.2 mph N8.4 kmh N 13.0 mph20.9 kmh 30.00 in1015.9 mb 0.00 in0.0 mm 0.00 in0.0 mm 0.08 in2.0 mm
03:01 AM 40.5°F4.7°C 37.2°F2.9°C 88% 4.8 mph 7.7 kmh 12.0 mph19.3 kmh 30.00 in1015.9 mb 0.00 in0.0 mm 0.00 in0.0 mm 0.08 in2.0 mm
03:06 AM 40.5°F4.7°C 36.9°F2.7°C 87% 6.6 mph NNE10.6 kmh NNE 17.4 mph28.0 kmh 30.00 in1015.9 mb 0.00 in0.0 mm 0.00 in0.0 mm 0.08 in2.0 mm
03:11 AM 40.9°F4.9°C 35.8°F2.1°C 82% 16.0 mph N25.7 kmh N 25.6 mph41.2 kmh 30.00 in1015.9 mb 0.00 in0.0 mm 0.00 in0.0 mm 0.08 in2.0 mm
03:16 AM 40.9°F4.9°C 35.2°F1.8°C 80% 10.2 mph N16.4 kmh N 30.4 mph48.9 kmh 30.03 in1016.9 mb 0.00 in0.0 mm 0.00 in0.0 mm 0.08 in2.0 mm
03:22 AM 40.5°F4.7°C 35.1°F1.7°C 81% 5.3 mph NNW8.5 kmh NNW 30.4 mph48.9 kmh 30.03 in1016.9 mb 0.00 in0.0 mm 0.00 in0.0 mm 0.08 in2.0 mm
03:27 AM 40.4°F4.7°C 35.6°F2.0°C 83% 4.9 mph N7.9 kmh N 19.6 mph31.5 kmh 30.03 in1016.9 mb 0.00 in0.0 mm 0.00 in0.0 mm 0.08 in2.0 mm
03:32 AM 40.2°F4.6°C 35.4°F1.9°C 83% 4.9 mph N7.9 kmh N 11.2 mph18.0 kmh 30.03 in1016.9 mb 0.00 in0.0 mm 0.00 in0.0 mm 0.08 in2.0 mm
03:37 AM 40.2°F4.6°C 35.1°F1.7°C 82% 3.2 mph NNW5.1 kmh NNW 11.6 mph18.7 kmh 30.03 in1016.9 mb 0.00 in0.0 mm 0.00 in0.0 mm 0.08 in2.0 mm
03:43 AM 40.2°F4.6°C 35.4°F1.9°C 83% 2.0 mph NNE3.2 kmh NNE 11.6 mph18.7 kmh 30.03 in1016.9 mb 0.00 in0.0 mm 0.00 in0.0 mm 0.08 in2.0 mm
03:48 AM 40.0°F4.4°C 35.2°F1.8°C 83% Calm Calm 4.0 mph6.4 kmh 30.00 in1015.9 mb 0.00 in0.0 mm 0.00 in0.0 mm 0.08 in2.0 mm
03:53 AM 39.8°F4.3°C 35.1°F1.7°C 83% Calm Calm 2.2 mph3.5 kmh 30.00 in1015.9 mb 0.00 in0.0 mm 0.00 in0.0 mm 0.08 in2.0 mm
03:58 AM 39.8°F4.3°C 35.3°F1.8°C 84% Calm Calm -- 30.00 in1015.9 mb 0.00 in0.0 mm 0.00 in0.0 mm 0.08 in2.0 mm
04:04 AM 39.6°F4.2°C 35.7°F2.1°C 86% Calm Calm -- 30.03 in1016.9 mb 0.00 in0.0 mm 0.00 in0.0 mm 0.08 in2.0 mm
04:09 AM 39.6°F4.2°C 35.4°F1.9°C 85% Calm Calm -- 30.03 in1016.9 mb 0.00 in0.0 mm 0.00 in0.0 mm 0.08 in2.0 mm
04:14 AM 39.6°F4.2°C 35.7°F2.1°C 86% Calm Calm 2.2 mph3.5 kmh 30.03 in1016.9 mb 0.00 in0.0 mm 0.00 in0.0 mm 0.08 in2.0 mm
04:19 AM 39.5°F4.2°C 35.6°F2.0°C 86% Calm Calm 2.2 mph3.5 kmh 30.03 in1016.9 mb 0.00 in0.0 mm 0.00 in0.0 mm 0.08 in2.0 mm
04:24 AM 39.6°F4.2°C 35.4°F1.9°C 85% Calm Calm -- 30.03 in1016.9 mb 0.00 in0.0 mm 0.00 in0.0 mm 0.08 in2.0 mm
04:29 AM 39.6°F4.2°C 35.4°F1.9°C 85% Calm Calm -- 30.03 in1016.9 mb 0.00 in0.0 mm 0.00 in0.0 mm 0.08 in2.0 mm
04:34 AM 39.8°F4.3°C 35.6°F2.0°C 85% Calm Calm -- 30.03 in1016.9 mb 0.00 in0.0 mm 0.00 in0.0 mm 0.08 in2.0 mm
04:39 AM 39.6°F4.2°C 35.2°F1.8°C 84% Calm Calm -- 30.03 in1016.9 mb 0.00 in0.0 mm 0.00 in0.0 mm 0.08 in2.0 mm
04:45 AM 39.8°F4.3°C 35.3°F1.8°C 84% Calm Calm -- 30.06 in1017.9 mb 0.00 in0.0 mm 0.00 in0.0 mm 0.08 in2.0 mm
04:50 AM 39.8°F4.3°C 35.1°F1.7°C 83% 2.3 mph ENE3.7 kmh ENE 2.6 mph4.2 kmh 30.06 in1017.9 mb 0.00 in0.0 mm 0.00 in0.0 mm 0.08 in2.0 mm
04:55 AM 40.0°F4.4°C 35.0°F1.7°C 82% Calm Calm 4.0 mph6.4 kmh 30.06 in1017.9 mb 0.00 in0.0 mm 0.00 in0.0 mm 0.08 in2.0 mm
05:00 AM 40.2°F4.6°C 34.8°F1.6°C 81% Calm Calm 4.0 mph6.4 kmh 30.03 in1016.9 mb 0.00 in0.0 mm 0.00 in0.0 mm 0.08 in2.0 mm
05:06 AM 40.2°F4.6°C 34.5°F1.4°C 80% 1.9 mph NNE3.1 kmh NNE 3.2 mph5.1 kmh 30.03 in1016.9 mb 0.00 in0.0 mm 0.00 in0.0 mm 0.08 in2.0 mm
05:11 AM 39.8°F4.3°C 33.8°F1.0°C 79% 2.2 mph NNW3.5 kmh NNW 4.0 mph6.4 kmh 30.03 in1016.9 mb 0.00 in0.0 mm 0.00 in0.0 mm 0.08 in2.0 mm
05:16 AM 39.6°F4.2°C 33.3°F0.7°C 78% 2.4 mph N3.9 kmh N 5.0 mph8.0 kmh 30.03 in1016.9 mb 0.00 in0.0 mm 0.00 in0.0 mm 0.08 in2.0 mm
05:21 AM 39.5°F4.2°C 32.9°F0.5°C 77% 2.3 mph NNE3.7 kmh NNE 5.0 mph8.0 kmh 30.03 in1016.9 mb 0.00 in0.0 mm 0.00 in0.0 mm 0.08 in2.0 mm
05:26 AM 39.1°F3.9°C 32.2°F0.1°C 76% 3.6 mph N5.8 kmh N 6.2 mph10.0 kmh 30.03 in1016.9 mb 0.00 in0.0 mm 0.00 in0.0 mm 0.08 in2.0 mm
05:31 AM 39.3°F4.1°C 32.1°F0.1°C 75% 3.3 mph NNW5.3 kmh NNW 6.2 mph10.0 kmh 30.06 in1017.9 mb 0.00 in0.0 mm 0.00 in0.0 mm 0.08 in2.0 mm
05:36 AM 38.7°F3.7°C 31.5°F-0.3°C 75% 3.7 mph NW6.0 kmh NW 6.2 mph10.0 kmh 30.06 in1017.9 mb 0.00 in0.0 mm 0.00 in0.0 mm 0.08 in2.0 mm
05:41 AM 38.6°F3.7°C 31.7°F-0.2°C 76% 3.3 mph NNW5.3 kmh NNW 5.0 mph8.0 kmh 30.06 in1017.9 mb 0.00 in0.0 mm 0.00 in0.0 mm 0.08 in2.0 mm
05:46 AM 38.4°F3.6°C 31.5°F-0.3°C 76% 3.6 mph NNW5.8 kmh NNW 5.0 mph8.0 kmh 30.09 in1019.0 mb 0.00 in0.0 mm 0.00 in0.0 mm 0.08 in2.0 mm
05:51 AM 38.4°F3.6°C 31.5°F-0.3°C 76% 4.2 mph NW6.8 kmh NW 5.4 mph8.7 kmh 30.09 in1019.0 mb 0.00 in0.0 mm 0.00 in0.0 mm 0.08 in2.0 mm
05:56 AM 38.4°F3.6°C 31.5°F-0.3°C 76% 3.6 mph NNW5.8 kmh NNW 5.4 mph8.7 kmh 30.09 in1019.0 mb 0.00 in0.0 mm 0.00 in0.0 mm 0.08 in2.0 mm
06:01 AM 38.0°F3.3°C 30.8°F-0.7°C 75% 2.6 mph N4.2 kmh N 5.0 mph8.0 kmh 30.09 in1019.0 mb 0.00 in0.0 mm 0.00 in0.0 mm 0.08 in2.0 mm
06:06 AM 37.8°F3.2°C 30.6°F-0.8°C 75% 3.4 mph WNW5.5 kmh WNW 5.0 mph8.0 kmh 30.09 in1019.0 mb 0.00 in0.0 mm 0.00 in0.0 mm 0.08 in2.0 mm
06:11 AM 37.7°F3.2°C 30.2°F-1.0°C 74% 2.8 mph NNW4.5 kmh NNW 5.0 mph8.0 kmh 30.09 in1019.0 mb 0.00 in0.0 mm 0.00 in0.0 mm 0.08 in2.0 mm
06:16 AM 37.7°F3.2°C 29.6°F-1.3°C 72% 4.8 mph NW7.7 kmh NW 5.8 mph9.3 kmh 30.06 in1017.9 mb 0.00 in0.0 mm 0.00 in0.0 mm 0.08 in2.0 mm
06:21 AM 37.7°F3.2°C 29.2°F-1.6°C 71% 5.1 mph NNW8.2 kmh NNW 6.2 mph10.0 kmh 30.06 in1017.9 mb 0.00 in0.0 mm 0.00 in0.0 mm 0.08 in2.0 mm
06:28 AM 37.7°F3.2°C 28.5°F-1.9°C 69% 4.5 mph NNW7.2 kmh NNW 7.2 mph11.6 kmh 30.06 in1017.9 mb 0.00 in0.0 mm 0.00 in0.0 mm 0.08 in2.0 mm
06:33 AM 37.7°F3.2°C 27.8°F-2.3°C 67% 4.8 mph NW7.7 kmh NW 7.2 mph11.6 kmh 30.09 in1019.0 mb 0.00 in0.0 mm 0.00 in0.0 mm 0.08 in2.0 mm
06:39 AM 37.7°F3.2°C 27.1°F-2.7°C 65% 4.7 mph WNW7.6 kmh WNW 6.8 mph10.9 kmh 30.09 in1019.0 mb 0.00 in0.0 mm 0.00 in0.0 mm 0.08 in2.0 mm
06:44 AM 37.5°F3.1°C 26.9°F-2.8°C 65% 6.0 mph WNW9.7 kmh WNW 7.6 mph12.2 kmh 30.09 in1019.0 mb 0.00 in0.0 mm 0.00 in0.0 mm 0.08 in2.0 mm
06:49 AM 37.5°F3.1°C 26.5°F-3.1°C 64% 4.6 mph NW7.4 kmh NW 7.6 mph12.2 kmh 30.09 in1019.0 mb 0.00 in0.0 mm 0.00 in0.0 mm 0.08 in2.0 mm
06:54 AM 37.3°F2.9°C 26.3°F-3.2°C 64% 3.8 mph NW6.1 kmh NW 7.6 mph12.2 kmh 30.09 in1019.0 mb 0.00 in0.0 mm 0.00 in0.0 mm 0.08 in2.0 mm
06:59 AM 37.1°F2.8°C 25.7°F-3.5°C 63% 7.2 mph NNW11.6 kmh NNW 11.2 mph18.0 kmh 30.12 in1020.0 mb 0.00 in0.0 mm 0.00 in0.0 mm 0.08 in2.0 mm
07:04 AM 37.3°F2.9°C 25.5°F-3.6°C 62% 5.6 mph NW9.0 kmh NW 11.2 mph18.0 kmh 30.12 in1020.0 mb 0.00 in0.0 mm 0.00 in0.0 mm 0.08 in2.0 mm
07:10 AM 37.3°F2.9°C 24.7°F-4.1°C 60% 4.9 mph NW7.9 kmh NW 7.6 mph12.2 kmh 30.12 in1020.0 mb 0.00 in0.0 mm 0.00 in0.0 mm 0.08 in2.0 mm
07:15 AM 37.3°F2.9°C 24.7°F-4.1°C 60% 5.2 mph NW8.4 kmh NW 7.2 mph11.6 kmh 30.15 in1021.0 mb 0.00 in0.0 mm 0.00 in0.0 mm 0.08 in2.0 mm
07:20 AM 37.3°F2.9°C 24.3°F-4.3°C 59% 4.6 mph NW7.4 kmh NW 6.8 mph10.9 kmh 30.15 in1021.0 mb 0.00 in0.0 mm 0.00 in0.0 mm 0.08 in2.0 mm
07:25 AM 37.3°F2.9°C 23.9°F-4.5°C 58% 5.4 mph WNW8.7 kmh WNW 8.0 mph12.9 kmh 30.15 in1021.0 mb 0.00 in0.0 mm 0.00 in0.0 mm 0.08 in2.0 mm
07:31 AM 37.3°F2.9°C 23.5°F-4.7°C 57% 6.8 mph WNW10.9 kmh WNW 9.4 mph15.1 kmh 30.15 in1021.0 mb 0.00 in0.0 mm 0.00 in0.0 mm 0.08 in2.0 mm
07:36 AM 37.7°F3.2°C 23.9°F-4.5°C 57% 5.9 mph NW9.5 kmh NW 13.0 mph20.9 kmh 30.15 in1021.0 mb 0.00 in0.0 mm 0.00 in0.0 mm 0.08 in2.0 mm
07:41 AM 37.7°F3.2°C 23.4°F-4.8°C 56% 6.1 mph W9.8 kmh W 13.0 mph20.9 kmh 30.15 in1021.0 mb 0.00 in0.0 mm 0.00 in0.0 mm 0.08 in2.0 mm
07:46 AM 38.4°F3.6°C 24.1°F-4.4°C 56% 5.4 mph NNW8.7 kmh NNW 9.4 mph15.1 kmh 30.18 in1022.0 mb 0.00 in0.0 mm 0.00 in0.0 mm 0.08 in2.0 mm
07:52 AM 39.1°F3.9°C 24.7°F-4.1°C 56% 4.5 mph N7.2 kmh N 9.4 mph15.1 kmh 30.18 in1022.0 mb 0.00 in0.0 mm 0.00 in0.0 mm 0.08 in2.0 mm
07:57 AM 40.4°F4.7°C 25.5°F-3.6°C 55% 4.4 mph NNW7.1 kmh NNW 8.6 mph13.8 kmh 30.18 in1022.0 mb 0.00 in0.0 mm 0.00 in0.0 mm 0.08 in2.0 mm
08:03 AM 41.1°F5.1°C 25.7°F-3.5°C 54% 4.9 mph NNW7.9 kmh NNW 7.2 mph11.6 kmh 30.15 in1021.0 mb 0.00 in0.0 mm 0.00 in0.0 mm 0.08 in2.0 mm
08:08 AM 42.0°F5.6°C 26.1°F-3.3°C 53% 5.4 mph NNW8.7 kmh NNW 9.8 mph15.8 kmh 30.15 in1021.0 mb 0.00 in0.0 mm 0.00 in0.0 mm 0.08 in2.0 mm
08:13 AM 42.0°F5.6°C 26.1°F-3.3°C 53% 3.8 mph NW6.1 kmh NW 9.8 mph15.8 kmh 30.15 in1021.0 mb 0.00 in0.0 mm 0.00 in0.0 mm 0.08 in2.0 mm
08:18 AM 42.2°F5.7°C 25.8°F-3.4°C 52% 5.3 mph NNW8.5 kmh NNW 11.2 mph18.0 kmh 30.15 in1021.0 mb 0.00 in0.0 mm 0.00 in0.0 mm 0.08 in2.0 mm
08:23 AM 42.0°F5.6°C 25.1°F-3.8°C 51% 6.7 mph NNW10.8 kmh NNW 11.2 mph18.0 kmh 30.15 in1021.0 mb 0.00 in0.0 mm 0.00 in0.0 mm 0.08 in2.0 mm
08:28 AM 42.3°F5.7°C 24.9°F-3.9°C 50% 6.7 mph NW10.8 kmh NW 10.8 mph17.4 kmh 30.15 in1021.0 mb 0.00 in0.0 mm 0.00 in0.0 mm 0.08 in2.0 mm
08:34 AM 41.8°F5.4°C 24.5°F-4.2°C 50% 7.0 mph NW11.3 kmh NW 10.8 mph17.4 kmh 30.18 in1022.0 mb 0.00 in0.0 mm 0.00 in0.0 mm 0.08 in2.0 mm
08:39 AM 41.4°F5.2°C 24.1°F-4.4°C 50% 6.8 mph NNW10.9 kmh NNW 10.8 mph17.4 kmh 30.18 in1022.0 mb 0.00 in0.0 mm 0.00 in0.0 mm 0.08 in2.0 mm
08:44 AM 40.7°F4.8°C 22.9°F-5.1°C 49% 7.5 mph NW12.1 kmh NW 15.6 mph25.1 kmh 30.18 in1022.0 mb 0.00 in0.0 mm 0.00 in0.0 mm 0.08 in2.0 mm
08:49 AM 40.4°F4.7°C 23.2°F-4.9°C 50% 5.8 mph N9.3 kmh N 15.6 mph25.1 kmh 30.18 in1022.0 mb 0.00 in0.0 mm 0.00 in0.0 mm 0.08 in2.0 mm
08:54 AM 40.4°F4.7°C 23.2°F-4.9°C 50% 7.0 mph NW11.3 kmh NW 9.8 mph15.8 kmh 30.18 in1022.0 mb 0.00 in0.0 mm 0.00 in0.0 mm 0.08 in2.0 mm
08:59 AM 40.5°F4.7°C 22.8°F-5.1°C 49% 13.2 mph NNW21.2 kmh NNW 19.6 mph31.5 kmh 30.21 in1023.0 mb 0.00 in0.0 mm 0.00 in0.0 mm 0.08 in2.0 mm
09:04 AM 40.5°F4.7°C 23.3°F-4.8°C 50% 7.2 mph NNW11.6 kmh NNW 22.8 mph36.7 kmh 30.21 in1023.0 mb 0.00 in0.0 mm 0.00 in0.0 mm 0.08 in2.0 mm
09:09 AM 40.9°F4.9°C 23.1°F-4.9°C 49% 7.1 mph N11.4 kmh N 22.8 mph36.7 kmh 30.21 in1023.0 mb 0.00 in0.0 mm 0.00 in0.0 mm 0.08 in2.0 mm
09:14 AM 40.9°F4.9°C 23.1°F-4.9°C 49% 14.0 mph N22.5 kmh N 22.8 mph36.7 kmh 30.18 in1022.0 mb 0.00 in0.0 mm 0.00 in0.0 mm 0.08 in2.0 mm
09:19 AM 41.1°F5.1°C 23.8°F-4.6°C 50% 6.6 mph NNW10.6 kmh NNW 20.6 mph33.2 kmh 30.18 in1022.0 mb 0.00 in0.0 mm 0.00 in0.0 mm 0.08 in2.0 mm
09:24 AM 41.1°F5.1°C 24.3°F-4.3°C 51% 14.0 mph N22.5 kmh N 26.0 mph41.8 kmh 30.18 in1022.0 mb 0.00 in0.0 mm 0.00 in0.0 mm 0.08 in2.0 mm
09:29 AM 41.3°F5.2°C 24.5°F-4.2°C 51% 7.7 mph NNW12.4 kmh NNW 26.0 mph41.8 kmh 30.21 in1023.0 mb 0.00 in0.0 mm 0.00 in0.0 mm 0.08 in2.0 mm
09:38 AM 41.1°F5.1°C 23.8°F-4.6°C 50% 15.9 mph N25.6 kmh N 23.8 mph38.3 kmh 30.21 in1023.0 mb 0.00 in0.0 mm 0.00 in0.0 mm 0.08 in2.0 mm
09:43 AM 41.4°F5.2°C 24.6°F-4.1°C 51% 9.8 mph N15.8 kmh N 23.8 mph38.3 kmh 30.21 in1023.0 mb 0.00 in0.0 mm 0.00 in0.0 mm 0.08 in2.0 mm
09:49 AM 42.0°F5.6°C 24.1°F-4.4°C 49% 10.8 mph N17.4 kmh N 19.2 mph30.9 kmh 30.18 in1022.0 mb 0.00 in0.0 mm 0.00 in0.0 mm 0.08 in2.0 mm
09:54 AM 41.6°F5.3°C 23.8°F-4.6°C 49% 7.0 mph N11.3 kmh N 15.2 mph24.5 kmh 30.18 in1022.0 mb 0.00 in0.0 mm 0.00 in0.0 mm 0.08 in2.0 mm
09:59 AM 40.5°F4.7°C 22.3°F-5.4°C 48% 18.7 mph N30.1 kmh N 25.6 mph41.2 kmh 30.21 in1023.0 mb 0.00 in0.0 mm 0.00 in0.0 mm 0.08 in2.0 mm
10:04 AM 40.2°F4.6°C 22.0°F-5.6°C 48% 10.7 mph NNE17.2 kmh NNE 25.6 mph41.2 kmh 30.21 in1023.0 mb 0.00 in0.0 mm 0.00 in0.0 mm 0.08 in2.0 mm
10:10 AM 40.7°F4.8°C 22.9°F-5.1°C 49% 6.5 mph N10.5 kmh N 25.6 mph41.2 kmh 30.21 in1023.0 mb 0.00 in0.0 mm 0.00 in0.0 mm 0.08 in2.0 mm
10:15 AM 41.6°F5.3°C 23.3°F-4.8°C 48% 9.6 mph N15.4 kmh N 20.6 mph33.2 kmh 30.24 in1024.0 mb 0.00 in0.0 mm 0.00 in0.0 mm 0.08 in2.0 mm
10:21 AM 42.0°F5.6°C 23.6°F-4.7°C 48% 14.8 mph NNE23.8 kmh NNE 23.8 mph38.3 kmh 30.24 in1024.0 mb 0.00 in0.0 mm 0.00 in0.0 mm 0.08 in2.0 mm
10:26 AM 42.2°F5.7°C 23.3°F-4.8°C 47% 15.7 mph N25.3 kmh N 25.6 mph41.2 kmh 30.24 in1024.0 mb 0.00 in0.0 mm 0.00 in0.0 mm 0.08 in2.0 mm
10:31 AM 42.3°F5.7°C 22.9°F-5.1°C 46% 13.4 mph 21.6 kmh 30.4 mph48.9 kmh 30.24 in1024.0 mb 0.00 in0.0 mm 0.00 in0.0 mm 0.08 in2.0 mm
10:36 AM 42.2°F5.7°C 22.2°F-5.4°C 45% 17.3 mph NNE27.8 kmh NNE 30.4 mph48.9 kmh 30.24 in1024.0 mb 0.00 in0.0 mm 0.00 in0.0 mm 0.08 in2.0 mm
10:41 AM 42.9°F6.1°C 23.4°F-4.8°C 46% 11.0 mph N17.7 kmh N 22.4 mph36.0 kmh 30.24 in1024.0 mb 0.00 in0.0 mm 0.00 in0.0 mm 0.08 in2.0 mm
10:46 AM 43.1°F6.2°C 23.6°F-4.7°C 46% 12.6 mph N20.3 kmh N 21.4 mph34.4 kmh 30.24 in1024.0 mb 0.00 in0.0 mm 0.00 in0.0 mm 0.08 in2.0 mm
10:52 AM 42.3°F5.7°C 22.3°F-5.4°C 45% 20.8 mph NNE33.5 kmh NNE 25.6 mph41.2 kmh 30.24 in1024.0 mb 0.00 in0.0 mm 0.00 in0.0 mm 0.08 in2.0 mm
10:57 AM 42.9°F6.1°C 22.9°F-5.1°C 45% 11.1 mph NNE17.9 kmh NNE 25.6 mph41.2 kmh 30.24 in1024.0 mb 0.00 in0.0 mm 0.00 in0.0 mm 0.08 in2.0 mm
11:03 AM 43.2°F6.2°C 22.6°F-5.2°C 44% 12.5 mph NE20.1 kmh NE 22.0 mph35.4 kmh 30.24 in1024.0 mb 0.00 in0.0 mm 0.00 in0.0 mm 0.08 in2.0 mm
11:08 AM 42.3°F5.7°C 21.8°F-5.7°C 44% 10.4 mph N16.7 kmh N 16.2 mph26.1 kmh 30.24 in1024.0 mb 0.00 in0.0 mm 0.00 in0.0 mm 0.08 in2.0 mm
11:13 AM 41.3°F5.2°C 20.9°F-6.2°C 44% 13.0 mph N20.9 kmh N 22.8 mph36.7 kmh 30.24 in1024.0 mb 0.00 in0.0 mm 0.00 in0.0 mm 0.08 in2.0 mm
11:18 AM 42.2°F5.7°C 22.2°F-5.4°C 45% 9.9 mph NNE15.9 kmh NNE 22.8 mph36.7 kmh 30.24 in1024.0 mb 0.00 in0.0 mm 0.00 in0.0 mm 0.08 in2.0 mm
11:24 AM 41.8°F5.4°C 21.3°F-5.9°C 44% 13.9 mph NE22.4 kmh NE 21.0 mph33.8 kmh 30.24 in1024.0 mb 0.00 in0.0 mm 0.00 in0.0 mm 0.08 in2.0 mm
11:29 AM 42.0°F5.6°C 21.5°F-5.8°C 44% 15.4 mph NNE24.8 kmh NNE 21.0 mph33.8 kmh 30.24 in1024.0 mb 0.00 in0.0 mm 0.00 in0.0 mm 0.08 in2.0 mm
11:36 AM 42.3°F5.7°C 21.2°F-6.0°C 43% 11.9 mph N19.2 kmh N 19.6 mph31.5 kmh 30.24 in1024.0 mb 0.00 in0.0 mm 0.00 in0.0 mm 0.08 in2.0 mm
11:41 AM 43.2°F6.2°C 22.6°F-5.2°C 44% 7.1 mph NNW11.4 kmh NNW 24.6 mph39.6 kmh 30.24 in1024.0 mb 0.00 in0.0 mm 0.00 in0.0 mm 0.08 in2.0 mm
11:46 AM 44.0°F6.7°C 22.2°F-5.4°C 42% 14.2 mph NE22.9 kmh NE 24.6 mph39.6 kmh 30.24 in1024.0 mb 0.00 in0.0 mm 0.00 in0.0 mm 0.08 in2.0 mm
11:51 AM 43.6°F6.4°C 22.4°F-5.3°C 43% 13.5 mph N21.7 kmh N 22.8 mph36.7 kmh 30.24 in1024.0 mb 0.00 in0.0 mm 0.00 in0.0 mm 0.08 in2.0 mm
11:56 AM 44.9°F7.2°C 23.0°F-5.0°C 42% 15.9 mph NE25.6 kmh NE 22.8 mph36.7 kmh 30.24 in1024.0 mb 0.00 in0.0 mm 0.00 in0.0 mm 0.08 in2.0 mm
12:01 PM 44.7°F7.1°C 22.8°F-5.1°C 42% 10.5 mph NE16.9 kmh NE 20.2 mph32.5 kmh 30.24 in1024.0 mb 0.00 in0.0 mm 0.00 in0.0 mm 0.08 in2.0 mm
12:06 PM 44.9°F7.2°C 21.8°F-5.7°C 40% 8.4 mph N13.5 kmh N 20.2 mph32.5 kmh 30.24 in1024.0 mb 0.00 in0.0 mm 0.00 in0.0 mm 0.08 in2.0 mm
12:11 PM 45.9°F7.7°C 23.3°F-4.8°C 41% 6.9 mph NNW11.1 kmh NNW 15.6 mph25.1 kmh 30.24 in1024.0 mb 0.00 in0.0 mm 0.00 in0.0 mm 0.08 in2.0 mm
12:17 PM 44.7°F7.1°C 20.4°F-6.4°C 38% 13.3 mph NNW21.4 kmh NNW 28.2 mph45.4 kmh 30.24 in1024.0 mb 0.00 in0.0 mm 0.00 in0.0 mm 0.08 in2.0 mm
12:22 PM 44.9°F7.2°C 20.6°F-6.3°C 38% 9.6 mph WNW15.4 kmh WNW 28.2 mph45.4 kmh 30.24 in1024.0 mb 0.00 in0.0 mm 0.00 in0.0 mm 0.08 in2.0 mm
12:28 PM 45.4°F7.4°C 21.0°F-6.1°C 38% 11.3 mph N18.2 kmh N 25.0 mph40.2 kmh 30.24 in1024.0 mb 0.00 in0.0 mm 0.00 in0.0 mm 0.08 in2.0 mm
12:33 PM 45.8°F7.7°C 21.4°F-5.9°C 38% 8.0 mph NNW12.9 kmh NNW 25.0 mph40.2 kmh 30.24 in1024.0 mb 0.00 in0.0 mm 0.00 in0.0 mm 0.08 in2.0 mm
12:38 PM 45.9°F7.7°C 22.1°F-5.5°C 39% 7.0 mph NNW11.3 kmh NNW 25.0 mph40.2 kmh 30.24 in1024.0 mb 0.00 in0.0 mm 0.00 in0.0 mm 0.08 in2.0 mm
12:43 PM 46.1°F7.8°C 21.7°F-5.7°C 38% 12.3 mph NNW19.8 kmh NNW 20.6 mph33.2 kmh 30.24 in1024.0 mb 0.00 in0.0 mm 0.00 in0.0 mm 0.08 in2.0 mm
12:49 PM 45.6°F7.6°C 21.2°F-6.0°C 38% 12.8 mph N20.6 kmh N 26.4 mph42.5 kmh 30.24 in1024.0 mb 0.00 in0.0 mm 0.00 in0.0 mm 0.08 in2.0 mm
12:54 PM 45.0°F7.2°C 20.0°F-6.7°C 37% 12.4 mph N20.0 kmh N 26.4 mph42.5 kmh 30.24 in1024.0 mb 0.00 in0.0 mm 0.00 in0.0 mm 0.08 in2.0 mm
12:59 PM 44.7°F7.1°C 18.5°F-7.5°C 35% 12.3 mph N19.8 kmh N 33.6 mph54.1 kmh 30.24 in1024.0 mb 0.00 in0.0 mm 0.00 in0.0 mm 0.08 in2.0 mm
01:04 PM 45.9°F7.7°C 19.5°F-6.9°C 35% 6.0 mph NNW9.7 kmh NNW 33.6 mph54.1 kmh 30.24 in1024.0 mb 0.00 in0.0 mm 0.00 in0.0 mm 0.08 in2.0 mm
01:10 PM 44.3°F6.8°C 14.6°F-9.7°C 30% 16.5 mph N26.6 kmh N 29.0 mph46.7 kmh 30.24 in1024.0 mb 0.00 in0.0 mm 0.00 in0.0 mm 0.08 in2.0 mm
01:15 PM 45.4°F7.4°C 17.0°F-8.3°C 32% 8.1 mph NNW13.0 kmh NNW 29.0 mph46.7 kmh 30.24 in1024.0 mb 0.00 in0.0 mm 0.00 in0.0 mm 0.08 in2.0 mm
01:21 PM 45.2°F7.3°C 13.0°F-10.6°C 27% 9.9 mph NNW15.9 kmh NNW 22.0 mph35.4 kmh 30.24 in1024.0 mb 0.00 in0.0 mm 0.00 in0.0 mm 0.08 in2.0 mm
01:26 PM 44.1°F6.7°C 12.8°F-10.7°C 28% 18.1 mph 29.1 kmh 30.4 mph48.9 kmh 30.24 in1024.0 mb 0.00 in0.0 mm 0.00 in0.0 mm 0.08 in2.0 mm
01:31 PM 44.3°F6.8°C -3.6°F-19.8°C 13% 20.3 mph N32.7 kmh N 36.2 mph58.3 kmh 30.24 in1024.0 mb 0.00 in0.0 mm 0.00 in0.0 mm 0.08 in2.0 mm
01:36 PM 45.2°F7.3°C -10.6°F-23.7°C 9% 11.0 mph NW17.7 kmh NW 36.2 mph58.3 kmh 30.24 in1024.0 mb 0.00 in0.0 mm 0.00 in0.0 mm 0.08 in2.0 mm
01:41 PM 43.8°F6.6°C -9.5°F-23.1°C 10% 15.4 mph WNW24.8 kmh WNW 24.2 mph38.9 kmh 30.24 in1024.0 mb 0.00 in0.0 mm 0.00 in0.0 mm 0.08 in2.0 mm
01:46 PM 44.5°F6.9°C 10.7°F-11.8°C 25% 10.8 mph NNW17.4 kmh NNW 24.2 mph38.9 kmh 30.24 in1024.0 mb 0.00 in0.0 mm 0.00 in0.0 mm 0.08 in2.0 mm
01:51 PM 44.3°F6.8°C -11.3°F-24.1°C 9% 13.0 mph NNW20.9 kmh NNW 22.0 mph35.4 kmh 30.24 in1024.0 mb 0.00 in0.0 mm 0.00 in0.0 mm 0.08 in2.0 mm
01:56 PM 44.5°F6.9°C -5.1°F-20.6°C 12% 12.0 mph NNW19.3 kmh NNW 23.8 mph38.3 kmh 30.24 in1024.0 mb 0.00 in0.0 mm 0.00 in0.0 mm 0.08 in2.0 mm
02:01 PM 44.1°F6.7°C -11.4°F-24.1°C 9% 8.7 mph NW14.0 kmh NW 23.8 mph38.3 kmh 30.24 in1024.0 mb 0.00 in0.0 mm 0.00 in0.0 mm 0.08 in2.0 mm
02:06 PM 43.6°F6.4°C -11.8°F-24.3°C 9% 11.0 mph NW17.7 kmh NW 20.2 mph32.5 kmh 30.24 in1024.0 mb 0.00 in0.0 mm 0.00 in0.0 mm 0.08 in2.0 mm
02:12 PM 43.6°F6.4°C -4.2°F-20.1°C 13% 8.0 mph NW12.9 kmh NW 20.2 mph32.5 kmh 30.24 in1024.0 mb 0.00 in0.0 mm 0.00 in0.0 mm 0.08 in2.0 mm
02:17 PM 43.1°F6.2°C -12.2°F-24.6°C 9% 13.0 mph NW20.9 kmh NW 17.0 mph27.4 kmh 30.24 in1024.0 mb 0.00 in0.0 mm 0.00 in0.0 mm 0.08 in2.0 mm
02:22 PM 42.3°F5.7°C -10.7°F-23.7°C 10% 21.3 mph N34.3 kmh N 45.2 mph72.7 kmh 30.24 in1024.0 mb 0.00 in0.0 mm 0.00 in0.0 mm 0.08 in2.0 mm
02:27 PM 42.0°F5.6°C -10.9°F-23.8°C 10% 9.3 mph NW15.0 kmh NW 45.2 mph72.7 kmh 30.24 in1024.0 mb 0.00 in0.0 mm 0.00 in0.0 mm 0.08 in2.0 mm
02:33 PM 41.6°F5.3°C -9.2°F-22.9°C 11% 9.6 mph NW15.4 kmh NW 29.6 mph47.6 kmh 30.24 in1024.0 mb 0.00 in0.0 mm 0.00 in0.0 mm 0.08 in2.0 mm
02:38 PM 40.9°F4.9°C -11.7°F-24.3°C 10% 9.7 mph NW15.6 kmh NW 29.6 mph47.6 kmh 30.24 in1024.0 mb 0.00 in0.0 mm 0.00 in0.0 mm 0.08 in2.0 mm
02:43 PM 40.4°F4.7°C -6.7°F-21.5°C 13% 10.3 mph NNW16.6 kmh NNW 16.2 mph26.1 kmh 30.24 in1024.0 mb 0.00 in0.0 mm 0.00 in0.0 mm 0.08 in2.0 mm
02:48 PM 40.0°F4.4°C -10.5°F-23.6°C 11% 15.2 mph NNW24.5 kmh NNW 19.6 mph31.5 kmh 30.27 in1025.1 mb 0.00 in0.0 mm 0.00 in0.0 mm 0.08 in2.0 mm
02:53 PM 40.7°F4.8°C 5.6°F-14.7°C 23% 8.2 mph NW13.2 kmh NW 19.6 mph31.5 kmh 30.27 in1025.1 mb 0.00 in0.0 mm 0.00 in0.0 mm 0.08 in2.0 mm
02:58 PM 40.5°F4.7°C -2.2°F-19.0°C 16% 14.6 mph N23.5 kmh N 24.2 mph38.9 kmh 30.27 in1025.1 mb 0.00 in0.0 mm 0.00 in0.0 mm 0.08 in2.0 mm
03:03 PM 40.4°F4.7°C 0.2°F-17.7°C 18% 14.8 mph NNE23.8 kmh NNE 26.0 mph41.8 kmh 30.27 in1025.1 mb 0.00 in0.0 mm 0.00 in0.0 mm 0.08 in2.0 mm
03:08 PM 40.4°F4.7°C -2.3°F-19.1°C 16% 18.6 mph NNE29.9 kmh NNE 26.0 mph41.8 kmh 30.27 in1025.1 mb 0.00 in0.0 mm 0.00 in0.0 mm 0.08 in2.0 mm
03:13 PM 40.2°F4.6°C 3.3°F-15.9°C 21% 14.0 mph N22.5 kmh N 26.0 mph41.8 kmh 30.27 in1025.1 mb 0.00 in0.0 mm 0.00 in0.0 mm 0.08 in2.0 mm
03:18 PM 40.4°F4.7°C 3.4°F-15.9°C 21% 10.1 mph N16.3 kmh N 22.8 mph36.7 kmh 30.27 in1025.1 mb 0.00 in0.0 mm 0.00 in0.0 mm 0.08 in2.0 mm
03:23 PM 40.2°F4.6°C 5.2°F-14.9°C 23% 8.0 mph NW12.9 kmh NW 19.6 mph31.5 kmh 30.27 in1025.1 mb 0.00 in0.0 mm 0.00 in0.0 mm 0.08 in2.0 mm
03:28 PM 40.2°F4.6°C 7.9°F-13.4°C 26% 6.7 mph NNW10.8 kmh NNW 19.2 mph30.9 kmh 30.27 in1025.1 mb 0.00 in0.0 mm 0.00 in0.0 mm 0.08 in2.0 mm
03:33 PM 39.8°F4.3°C 2.9°F-16.2°C 21% 16.5 mph N26.6 kmh N 24.6 mph39.6 kmh 30.27 in1025.1 mb 0.00 in0.0 mm 0.00 in0.0 mm 0.08 in2.0 mm
03:38 PM 38.4°F3.6°C -13.7°F-25.4°C 10% 22.7 mph N36.5 kmh N 33.6 mph54.1 kmh 30.27 in1025.1 mb 0.00 in0.0 mm 0.00 in0.0 mm 0.08 in2.0 mm
03:43 PM 38.2°F3.4°C -13.8°F-25.4°C 10% 21.7 mph NNE34.9 kmh NNE 33.6 mph54.1 kmh 30.27 in1025.1 mb 0.00 in0.0 mm 0.00 in0.0 mm 0.08 in2.0 mm
03:48 PM 38.4°F3.6°C -13.7°F-25.4°C 10% 13.8 mph N22.2 kmh N 39.8 mph64.1 kmh 30.24 in1024.0 mb 0.00 in0.0 mm 0.00 in0.0 mm 0.08 in2.0 mm
03:54 PM 37.8°F3.2°C -14.1°F-25.6°C 10% 12.4 mph N20.0 kmh N 34.4 mph55.4 kmh 30.24 in1024.0 mb 0.00 in0.0 mm 0.00 in0.0 mm 0.08 in2.0 mm
03:59 PM 37.1°F2.8°C -12.7°F-24.8°C 11% 19.9 mph N32.0 kmh N 34.4 mph55.4 kmh 30.27 in1025.1 mb 0.00 in0.0 mm 0.00 in0.0 mm 0.08 in2.0 mm
04:05 PM 36.8°F2.7°C -13.0°F-25.0°C 11% 23.7 mph N38.1 kmh N 34.0 mph54.7 kmh 30.27 in1025.1 mb 0.00 in0.0 mm 0.00 in0.0 mm 0.08 in2.0 mm
04:10 PM 36.2°F2.3°C -13.4°F-25.2°C 11% 25.5 mph NNE41.0 kmh NNE 34.0 mph54.7 kmh 30.27 in1025.1 mb 0.00 in0.0 mm 0.00 in0.0 mm 0.08 in2.0 mm
04:15 PM 36.2°F2.3°C -13.4°F-25.2°C 11% 18.5 mph NNE29.8 kmh NNE 30.8 mph49.6 kmh 30.27 in1025.1 mb 0.00 in0.0 mm 0.00 in0.0 mm 0.08 in2.0 mm
04:20 PM 36.0°F2.2°C -13.6°F-25.3°C 11% 21.5 mph NNE34.6 kmh NNE 29.6 mph47.6 kmh 30.27 in1025.1 mb 0.00 in0.0 mm 0.00 in0.0 mm 0.08 in2.0 mm
04:25 PM 36.0°F2.2°C -13.6°F-25.3°C 11% 10.2 mph N16.4 kmh N 28.2 mph45.4 kmh 30.27 in1025.1 mb 0.00 in0.0 mm 0.00 in0.0 mm 0.08 in2.0 mm
04:30 PM 35.5°F1.9°C -14.0°F-25.6°C 11% 18.9 mph N30.4 kmh N 39.0 mph62.8 kmh 30.30 in1026.1 mb 0.00 in0.0 mm 0.00 in0.0 mm 0.08 in2.0 mm
04:35 PM 35.3°F1.8°C -14.1°F-25.6°C 11% 16.1 mph N25.9 kmh N 39.0 mph62.8 kmh 30.30 in1026.1 mb 0.00 in0.0 mm 0.00 in0.0 mm 0.08 in2.0 mm
04:40 PM 35.3°F1.8°C -14.1°F-25.6°C 11% 13.5 mph N21.7 kmh N 32.2 mph51.8 kmh 30.30 in1026.1 mb 0.00 in0.0 mm 0.00 in0.0 mm 0.08 in2.0 mm
04:45 PM 35.3°F1.8°C -14.1°F-25.6°C 11% 8.0 mph N12.9 kmh N 25.0 mph40.2 kmh 30.30 in1026.1 mb 0.00 in0.0 mm 0.00 in0.0 mm 0.08 in2.0 mm
04:50 PM 35.0°F1.7°C -14.4°F-25.8°C 11% 12.2 mph 19.6 kmh 19.6 mph31.5 kmh 30.30 in1026.1 mb 0.00 in0.0 mm 0.00 in0.0 mm 0.08 in2.0 mm
04:55 PM 34.8°F1.6°C -14.5°F-25.8°C 11% 12.5 mph 20.1 kmh 24.2 mph38.9 kmh 30.30 in1026.1 mb 0.00 in0.0 mm 0.00 in0.0 mm 0.08 in2.0 mm
05:00 PM 34.6°F1.4°C -14.7°F-25.9°C 11% 9.1 mph N14.6 kmh N 24.2 mph38.9 kmh 30.30 in1026.1 mb 0.00 in0.0 mm 0.00 in0.0 mm 0.08 in2.0 mm
05:05 PM 34.4°F1.3°C -14.8°F-26.0°C 11% 8.0 mph N12.9 kmh N 17.0 mph27.4 kmh 30.30 in1026.1 mb 0.00 in0.0 mm 0.00 in0.0 mm 0.08 in2.0 mm
05:10 PM 34.2°F1.2°C -13.2°F-25.1°C 12% 11.7 mph 18.8 kmh 21.4 mph34.4 kmh 30.30 in1026.1 mb 0.00 in0.0 mm 0.00 in0.0 mm 0.08 in2.0 mm
05:16 PM 34.4°F1.3°C -5.9°F-21.1°C 17% 5.3 mph NNW8.5 kmh NNW 21.4 mph34.4 kmh 30.33 in1027.1 mb 0.00 in0.0 mm 0.00 in0.0 mm 0.08 in2.0 mm
05:21 PM 34.2°F1.2°C -6.1°F-21.2°C 17% 7.7 mph N12.4 kmh N 14.8 mph23.8 kmh 30.33 in1027.1 mb 0.00 in0.0 mm 0.00 in0.0 mm 0.08 in2.0 mm
05:26 PM 33.7°F0.9°C -6.5°F-21.4°C 17% 8.2 mph N13.2 kmh N 13.0 mph20.9 kmh 30.33 in1027.1 mb 0.00 in0.0 mm 0.00 in0.0 mm 0.08 in2.0 mm
05:31 PM 33.5°F0.8°C -5.5°F-20.8°C 18% 8.9 mph NNW14.3 kmh NNW 15.2 mph24.5 kmh 30.33 in1027.1 mb 0.00 in0.0 mm 0.00 in0.0 mm 0.08 in2.0 mm
05:38 PM 33.2°F0.7°C -3.6°F-19.8°C 20% 7.8 mph N12.6 kmh N 14.8 mph23.8 kmh 30.33 in1027.1 mb 0.00 in0.0 mm 0.00 in0.0 mm 0.08 in2.0 mm
05:43 PM 33.0°F0.6°C 0.9°F-17.3°C 25% 5.8 mph N9.3 kmh N 14.4 mph23.2 kmh 30.33 in1027.1 mb 0.00 in0.0 mm 0.00 in0.0 mm 0.08 in2.0 mm
05:48 PM 32.6°F0.3°C 2.9°F-16.2°C 28% 6.8 mph N10.9 kmh N 14.4 mph23.2 kmh 30.30 in1026.1 mb 0.00 in0.0 mm 0.00 in0.0 mm 0.08 in2.0 mm
05:53 PM 32.4°F0.2°C 4.2°F-15.4°C 30% 6.1 mph N9.8 kmh N 11.2 mph18.0 kmh 30.30 in1026.1 mb 0.00 in0.0 mm 0.00 in0.0 mm 0.08 in2.0 mm
05:58 PM 32.3°F0.2°C 2.6°F-16.3°C 28% 9.4 mph N15.1 kmh N 20.6 mph33.2 kmh 30.30 in1026.1 mb 0.00 in0.0 mm 0.00 in0.0 mm 0.08 in2.0 mm
06:03 PM 31.9°F-0.1°C 3.8°F-15.7°C 30% 6.0 mph N9.7 kmh N 20.6 mph33.2 kmh 30.33 in1027.1 mb 0.00 in0.0 mm 0.00 in0.0 mm 0.08 in2.0 mm
06:08 PM 31.7°F-0.2°C 3.6°F-15.8°C 30% 5.3 mph NNW8.5 kmh NNW 17.0 mph27.4 kmh 30.33 in1027.1 mb 0.00 in0.0 mm 0.00 in0.0 mm 0.08 in2.0 mm
06:13 PM 31.4°F-0.3°C 4.0°F-15.6°C 31% 4.2 mph NNW6.8 kmh NNW 9.8 mph15.8 kmh 30.33 in1027.1 mb 0.00 in0.0 mm 0.00 in0.0 mm 0.08 in2.0 mm
06:18 PM 31.0°F-0.6°C 3.7°F-15.7°C 31% 4.2 mph W6.8 kmh W 8.0 mph12.9 kmh 30.33 in1027.1 mb 0.00 in0.0 mm 0.00 in0.0 mm 0.08 in2.0 mm
06:23 PM 30.8°F-0.7°C 3.5°F-15.8°C 31% 4.7 mph NNE7.6 kmh NNE 8.0 mph12.9 kmh 30.33 in1027.1 mb 0.00 in0.0 mm 0.00 in0.0 mm 0.08 in2.0 mm
06:28 PM 30.6°F-0.8°C 3.3°F-15.9°C 31% 3.8 mph SW6.1 kmh SW 8.0 mph12.9 kmh 30.33 in1027.1 mb 0.00 in0.0 mm 0.00 in0.0 mm 0.08 in2.0 mm
06:33 PM 30.3°F-0.9°C 3.1°F-16.1°C 31% Calm Calm 6.8 mph10.9 kmh 30.36 in1028.1 mb 0.00 in0.0 mm 0.00 in0.0 mm 0.08 in2.0 mm
06:38 PM 29.9°F-1.2°C 3.4°F-15.9°C 32% 4.0 mph N6.4 kmh N 5.4 mph8.7 kmh 30.36 in1028.1 mb 0.00 in0.0 mm 0.00 in0.0 mm 0.08 in2.0 mm
06:43 PM 29.6°F-1.3°C 3.1°F-16.1°C 32% 2.8 mph N4.5 kmh N 5.4 mph8.7 kmh 30.36 in1028.1 mb 0.00 in0.0 mm 0.00 in0.0 mm 0.08 in2.0 mm
06:49 PM 29.4°F-1.4°C 3.0°F-16.1°C 32% 3.7 mph N6.0 kmh N 5.8 mph9.3 kmh 30.36 in1028.1 mb 0.00 in0.0 mm 0.00 in0.0 mm 0.08 in2.0 mm
06:54 PM 29.4°F-1.4°C 3.6°F-15.8°C 33% 5.5 mph N8.9 kmh N 8.6 mph13.8 kmh 30.36 in1028.1 mb 0.00 in0.0 mm 0.00 in0.0 mm 0.08 in2.0 mm
06:59 PM 29.6°F-1.3°C 3.8°F-15.7°C 33% 5.9 mph N9.5 kmh N 8.6 mph13.8 kmh 30.36 in1028.1 mb 0.00 in0.0 mm 0.00 in0.0 mm 0.08 in2.0 mm
07:04 PM 29.4°F-1.4°C 3.6°F-15.8°C 33% 5.4 mph N8.7 kmh N 8.0 mph12.9 kmh 30.36 in1028.1 mb 0.00 in0.0 mm 0.00 in0.0 mm 0.08 in2.0 mm
07:09 PM 29.4°F-1.4°C 3.6°F-15.8°C 33% 6.3 mph N10.1 kmh N 13.0 mph20.9 kmh 30.36 in1028.1 mb 0.00 in0.0 mm 0.00 in0.0 mm 0.08 in2.0 mm
07:14 PM 29.2°F-1.6°C 4.1°F-15.5°C 34% 4.8 mph N7.7 kmh N 13.0 mph20.9 kmh 30.36 in1028.1 mb 0.00 in0.0 mm 0.00 in0.0 mm 0.08 in2.0 mm
07:19 PM 29.2°F-1.6°C 4.1°F-15.5°C 34% 9.2 mph N14.8 kmh N 12.0 mph19.3 kmh 30.36 in1028.1 mb 0.00 in0.0 mm 0.00 in0.0 mm 0.08 in2.0 mm
07:24 PM 29.0°F-1.7°C 3.9°F-15.6°C 34% 5.9 mph N9.5 kmh N 12.0 mph19.3 kmh 30.36 in1028.1 mb 0.00 in0.0 mm 0.00 in0.0 mm 0.08 in2.0 mm
07:29 PM 28.8°F-1.8°C 3.7°F-15.7°C 34% 2.7 mph NE4.3 kmh NE 11.6 mph18.7 kmh 30.36 in1028.1 mb 0.00 in0.0 mm 0.00 in0.0 mm 0.08 in2.0 mm
07:34 PM 28.3°F-2.1°C 3.9°F-15.6°C 35% 2.2 mph NE3.5 kmh NE 11.6 mph18.7 kmh 30.36 in1028.1 mb 0.00 in0.0 mm 0.00 in0.0 mm 0.08 in2.0 mm
07:39 PM 28.1°F-2.2°C 3.7°F-15.7°C 35% 5.7 mph NE9.2 kmh NE 7.6 mph12.2 kmh 30.36 in1028.1 mb 0.00 in0.0 mm 0.00 in0.0 mm 0.08 in2.0 mm
07:44 PM 28.3°F-2.1°C 3.9°F-15.6°C 35% 5.3 mph N8.5 kmh N 9.4 mph15.1 kmh 30.36 in1028.1 mb 0.00 in0.0 mm 0.00 in0.0 mm 0.08 in2.0 mm
07:49 PM 28.1°F-2.2°C 4.4°F-15.3°C 36% 4.0 mph 6.4 kmh 9.4 mph15.1 kmh 30.36 in1028.1 mb 0.00 in0.0 mm 0.00 in0.0 mm 0.08 in2.0 mm
07:55 PM 28.1°F-2.2°C 4.4°F-15.3°C 36% 8.7 mph NNE14.0 kmh NNE 11.2 mph18.0 kmh 30.36 in1028.1 mb 0.00 in0.0 mm 0.00 in0.0 mm 0.08 in2.0 mm
08:00 PM 27.9°F-2.3°C 5.4°F-14.8°C 38% 8.2 mph N13.2 kmh N 13.4 mph21.6 kmh 30.36 in1028.1 mb 0.00 in0.0 mm 0.00 in0.0 mm 0.08 in2.0 mm
08:05 PM 27.8°F-2.3°C 5.3°F-14.8°C 38% 7.7 mph NNE12.4 kmh NNE 14.4 mph23.2 kmh 30.36 in1028.1 mb 0.00 in0.0 mm 0.00 in0.0 mm 0.08 in2.0 mm
08:11 PM 27.8°F-2.3°C 5.9°F-14.5°C 39% 6.6 mph NNE10.6 kmh NNE 14.4 mph23.2 kmh 30.36 in1028.1 mb 0.00 in0.0 mm 0.00 in0.0 mm 0.08 in2.0 mm
08:16 PM 27.8°F-2.3°C 6.4°F-14.2°C 40% 8.1 mph N13.0 kmh N 14.4 mph23.2 kmh 30.36 in1028.1 mb 0.00 in0.0 mm 0.00 in0.0 mm 0.08 in2.0 mm
08:21 PM 27.6°F-2.4°C 5.7°F-14.6°C 39% 6.0 mph NNE9.7 kmh NNE 13.8 mph22.2 kmh 30.36 in1028.1 mb 0.00 in0.0 mm 0.00 in0.0 mm 0.08 in2.0 mm
08:26 PM 27.4°F-2.6°C 5.5°F-14.7°C 39% 4.7 mph NNE7.6 kmh NNE 13.0 mph20.9 kmh 30.36 in1028.1 mb 0.00 in0.0 mm 0.00 in0.0 mm 0.08 in2.0 mm
08:32 PM 27.0°F-2.8°C 5.1°F-14.9°C 39% 3.0 mph NE4.8 kmh NE 11.6 mph18.7 kmh 30.36 in1028.1 mb 0.00 in0.0 mm 0.00 in0.0 mm 0.08 in2.0 mm
08:37 PM 26.9°F-2.8°C 5.0°F-15.0°C 39% 5.4 mph NNE8.7 kmh NNE 9.8 mph15.8 kmh 30.36 in1028.1 mb 0.00 in0.0 mm 0.00 in0.0 mm 0.08 in2.0 mm
08:42 PM 26.7°F-2.9°C 4.9°F-15.1°C 39% 5.2 mph N8.4 kmh N 10.8 mph17.4 kmh 30.36 in1028.1 mb 0.00 in0.0 mm 0.00 in0.0 mm 0.08 in2.0 mm
08:47 PM 26.7°F-2.9°C 4.9°F-15.1°C 39% 5.3 mph N8.5 kmh N 10.8 mph17.4 kmh 30.36 in1028.1 mb 0.00 in0.0 mm 0.00 in0.0 mm 0.08 in2.0 mm
08:52 PM 26.5°F-3.1°C 5.3°F-14.8°C 40% 5.4 mph NNE8.7 kmh NNE 10.8 mph17.4 kmh 30.36 in1028.1 mb 0.00 in0.0 mm 0.00 in0.0 mm 0.08 in2.0 mm
08:57 PM 26.3°F-3.2°C 5.1°F-14.9°C 40% 6.4 mph NNE10.3 kmh NNE 9.8 mph15.8 kmh 30.36 in1028.1 mb 0.00 in0.0 mm 0.00 in0.0 mm 0.08 in2.0 mm
09:02 PM 26.0°F-3.3°C 4.8°F-15.1°C 40% 2.7 mph ENE4.3 kmh ENE 9.8 mph15.8 kmh 30.36 in1028.1 mb 0.00 in0.0 mm 0.00 in0.0 mm 0.08 in2.0 mm
09:07 PM 26.0°F-3.3°C 4.8°F-15.1°C 40% 4.0 mph N6.4 kmh N 6.2 mph10.0 kmh 30.36 in1028.1 mb 0.00 in0.0 mm 0.00 in0.0 mm 0.08 in2.0 mm
09:12 PM 26.0°F-3.3°C 4.8°F-15.1°C 40% 3.6 mph N5.8 kmh N 5.8 mph9.3 kmh 30.36 in1028.1 mb 0.00 in0.0 mm 0.00 in0.0 mm 0.08 in2.0 mm
09:17 PM 26.0°F-3.3°C 5.3°F-14.8°C 41% 5.0 mph N8.0 kmh N 8.6 mph13.8 kmh 30.36 in1028.1 mb 0.00 in0.0 mm 0.00 in0.0 mm 0.08 in2.0 mm
09:23 PM 25.6°F-3.6°C 4.4°F-15.3°C 40% 3.0 mph NNE4.8 kmh NNE 8.0 mph12.9 kmh 30.36 in1028.1 mb 0.00 in0.0 mm 0.00 in0.0 mm 0.08 in2.0 mm
09:28 PM 25.6°F-3.6°C 5.0°F-15.0°C 41% 4.4 mph N7.1 kmh N 6.2 mph10.0 kmh 30.39 in1029.1 mb 0.00 in0.0 mm 0.00 in0.0 mm 0.08 in2.0 mm
09:34 PM 25.8°F-3.4°C 5.2°F-14.9°C 41% 9.0 mph N14.5 kmh N 13.0 mph20.9 kmh 30.39 in1029.1 mb 0.00 in0.0 mm 0.00 in0.0 mm 0.08 in2.0 mm
09:39 PM 25.6°F-3.6°C 5.0°F-15.0°C 41% 8.6 mph NNE13.8 kmh NNE 13.0 mph20.9 kmh 30.39 in1029.1 mb 0.00 in0.0 mm 0.00 in0.0 mm 0.08 in2.0 mm
09:46 PM 25.8°F-3.4°C 5.2°F-14.9°C 41% 6.1 mph N9.8 kmh N 17.4 mph28.0 kmh 30.36 in1028.1 mb 0.00 in0.0 mm 0.00 in0.0 mm 0.08 in2.0 mm
09:51 PM 25.6°F-3.6°C 5.0°F-15.0°C 41% 4.7 mph NNE7.6 kmh NNE 17.4 mph28.0 kmh 30.36 in1028.1 mb 0.00 in0.0 mm 0.00 in0.0 mm 0.08 in2.0 mm
09:57 PM 25.2°F-3.8°C 4.6°F-15.2°C 41% 4.5 mph N7.2 kmh N 11.2 mph18.0 kmh 30.36 in1028.1 mb 0.00 in0.0 mm 0.00 in0.0 mm 0.08 in2.0 mm
10:26 PM 24.5°F-4.2°C 4.5°F-15.3°C 42% 3.5 mph 5.6 kmh 7.2 mph11.6 kmh 30.39 in1029.1 mb 0.00 in0.0 mm 0.00 in0.0 mm 0.08 in2.0 mm
10:32 PM 24.3°F-4.3°C 4.3°F-15.4°C 42% 4.2 mph NNE6.8 kmh NNE 6.8 mph10.9 kmh 30.42 in1030.1 mb 0.00 in0.0 mm 0.00 in0.0 mm 0.08 in2.0 mm
10:37 PM 24.3°F-4.3°C 4.3°F-15.4°C 42% 6.6 mph N10.6 kmh N 9.8 mph15.8 kmh 30.42 in1030.1 mb 0.00 in0.0 mm 0.00 in0.0 mm 0.08 in2.0 mm
10:43 PM 24.3°F-4.3°C 4.3°F-15.4°C 42% 6.3 mph N10.1 kmh N 9.8 mph15.8 kmh 30.42 in1030.1 mb 0.00 in0.0 mm 0.00 in0.0 mm 0.08 in2.0 mm
10:48 PM 24.3°F-4.3°C 4.3°F-15.4°C 42% 9.1 mph NNE14.6 kmh NNE 13.0 mph20.9 kmh 30.39 in1029.1 mb 0.00 in0.0 mm 0.00 in0.0 mm 0.08 in2.0 mm
10:54 PM 24.2°F-4.3°C 4.8°F-15.1°C 43% 5.6 mph NNE9.0 kmh NNE 13.0 mph20.9 kmh 30.39 in1029.1 mb 0.00 in0.0 mm 0.00 in0.0 mm 0.08 in2.0 mm
10:59 PM 24.2°F-4.3°C 4.8°F-15.1°C 43% 2.3 mph NNW3.7 kmh NNW 11.6 mph18.7 kmh 30.36 in1028.1 mb 0.00 in0.0 mm 0.00 in0.0 mm 0.08 in2.0 mm
11:04 PM 23.6°F-4.7°C 4.2°F-15.4°C 43% Calm Calm 5.0 mph8.0 kmh 30.36 in1028.1 mb 0.00 in0.0 mm 0.00 in0.0 mm 0.08 in2.0 mm
11:09 PM 23.4°F-4.8°C 4.1°F-15.5°C 43% 3.1 mph WNW5.0 kmh WNW 4.0 mph6.4 kmh 30.36 in1028.1 mb 0.00 in0.0 mm 0.00 in0.0 mm 0.08 in2.0 mm
11:14 PM 23.3°F-4.8°C 4.0°F-15.6°C 43% 2.1 mph NNW3.4 kmh NNW 4.0 mph6.4 kmh 30.39 in1029.1 mb 0.00 in0.0 mm 0.00 in0.0 mm 0.08 in2.0 mm
11:19 PM 22.7°F-5.2°C 3.4°F-15.9°C 43% Calm Calm 4.0 mph6.4 kmh 30.39 in1029.1 mb 0.00 in0.0 mm 0.00 in0.0 mm 0.08 in2.0 mm
11:25 PM 22.4°F-5.3°C 3.1°F-16.1°C 43% 3.3 mph E5.3 kmh E 4.4 mph7.1 kmh 30.39 in1029.1 mb 0.00 in0.0 mm 0.00 in0.0 mm 0.08 in2.0 mm
11:30 PM 22.7°F-5.2°C 3.4°F-15.9°C 43% 6.0 mph 9.7 kmh 6.8 mph10.9 kmh 30.36 in1028.1 mb 0.00 in0.0 mm 0.00 in0.0 mm 0.08 in2.0 mm
11:35 PM 23.1°F-4.9°C 3.8°F-15.7°C 43% 6.4 mph N10.3 kmh N 9.4 mph15.1 kmh 30.36 in1028.1 mb 0.00 in0.0 mm 0.00 in0.0 mm 0.08 in2.0 mm
11:40 PM 23.1°F-4.9°C 4.3°F-15.4°C 44% 7.6 mph NE12.2 kmh NE 12.0 mph19.3 kmh 30.36 in1028.1 mb 0.00 in0.0 mm 0.00 in0.0 mm 0.08 in2.0 mm
11:46 PM 22.9°F-5.1°C 4.1°F-15.5°C 44% 6.0 mph ESE9.7 kmh ESE 12.0 mph19.3 kmh 30.36 in1028.1 mb 0.00 in0.0 mm 0.00 in0.0 mm 0.08 in2.0 mm
11:51 PM 22.7°F-5.2°C 3.9°F-15.6°C 44% 5.7 mph ENE9.2 kmh ENE 9.4 mph15.1 kmh 30.36 in1028.1 mb 0.00 in0.0 mm 0.00 in0.0 mm 0.08 in2.0 mm
11:56 PM 23.1°F-4.9°C 4.3°F-15.4°C 44% 8.0 mph NNE12.9 kmh NNE 12.6 mph20.3 kmh 30.36 in1028.1 mb 0.00 in0.0 mm 0.00 in0.0 mm 0.08 in2.0 mm